Time;durP1;ratioP1;P1;durP2;ratioP2;P2;SDS_P1;SDS_P2;PMS_P1;PMS_P2;Temp;Humidity;BMP_temperature;BMP_pressure;BME280_temperature;BME280_humidity;BME280_pressure;Samples;Min_cycle;Max_cycle;Signal;HPM_P1;HPM_P2
2023/03/04 00:00:16;;;;;;;1.42;0.47;;;16.50;1.00;;;;;;5051578;28;20053;-39
2023/03/04 00:02:42;;;;;;;1.38;0.38;;;16.60;1.00;;;;;;5051261;28;20049;-39
2023/03/04 00:05:09;;;;;;;1.98;0.63;;;16.60;1.00;;;;;;5051656;28;20053;-39
2023/03/04 00:07:36;;;;;;;1.90;0.50;;;16.60;1.00;;;;;;5051864;28;20045;-39
2023/03/04 00:10:04;;;;;;;2.45;0.65;;;16.60;1.00;;;;;;5051754;28;20447;-39
2023/03/04 00:12:31;;;;;;;2.33;0.47;;;16.60;1.00;;;;;;5051516;28;20041;-39
2023/03/04 00:14:58;;;;;;;2.85;0.47;;;16.60;1.00;;;;;;5051311;28;20064;-39
2023/03/04 00:17:25;;;;;;;1.92;0.47;;;16.60;1.00;;;;;;5051698;28;20048;-39
2023/03/04 00:19:52;;;;;;;2.03;0.57;;;16.60;1.00;;;;;;5051738;28;20102;-39
2023/03/04 00:22:18;;;;;;;2.20;0.77;;;16.60;1.00;;;;;;5051277;28;20049;-39
2023/03/04 00:24:45;;;;;;;2.42;0.60;;;16.60;1.00;;;;;;5048623;22;20591;-37
2023/03/04 00:27:12;;;;;;;4.18;0.47;;;16.60;1.00;;;;;;5031475;28;20069;-37
2023/03/04 00:29:39;;;;;;;4.82;0.60;;;16.60;1.00;;;;;;5024539;28;20046;-37
2023/03/04 00:32:05;;;;;;;1.85;0.60;;;16.50;1.00;;;;;;5029251;28;20156;-37
2023/03/04 00:34:32;;;;;;;6.47;0.82;;;16.50;1.00;;;;;;5029557;28;20077;-37
2023/03/04 00:37:01;;;;;;;3.72;0.85;;;16.50;1.00;;;;;;5013914;28;20051;-37
2023/03/04 00:39:27;;;;;;;2.15;0.45;;;16.50;1.00;;;;;;5013857;28;20053;-37
2023/03/04 00:41:54;;;;;;;1.85;0.57;;;16.40;1.00;;;;;;5013661;28;20050;-37
2023/03/04 00:44:21;;;;;;;5.53;1.45;;;16.40;1.00;;;;;;5034448;28;20053;-37
2023/03/04 00:46:48;;;;;;;2.28;0.68;;;16.40;1.00;;;;;;5017737;28;20504;-37
2023/03/04 00:49:15;;;;;;;2.45;0.55;;;16.40;1.00;;;;;;5035430;28;20095;-37
2023/03/04 00:51:41;;;;;;;2.30;0.63;;;16.40;1.00;;;;;;5017624;28;20115;-37
2023/03/04 00:54:08;;;;;;;1.35;0.40;;;16.30;1.00;;;;;;5033336;28;20579;-37
2023/03/04 00:56:35;;;;;;;2.33;0.55;;;16.30;1.00;;;;;;5035118;28;20394;-37
2023/03/04 00:59:01;;;;;;;2.78;1.05;;;16.30;1.00;;;;;;5033789;28;20058;-37
2023/03/04 01:01:28;;;;;;;2.83;0.50;;;16.30;1.00;;;;;;5034065;28;20111;-37
2023/03/04 01:03:55;;;;;;;2.33;0.68;;;16.20;1.00;;;;;;5034494;28;20068;-38
2023/03/04 01:06:22;;;;;;;5.22;0.70;;;16.20;1.00;;;;;;5035153;28;20505;-38
2023/03/04 01:08:49;;;;;;;2.05;0.60;;;16.20;1.00;;;;;;5033971;28;20042;-38
2023/03/04 01:11:15;;;;;;;2.83;0.47;;;16.10;1.00;;;;;;5033694;28;20049;-37
2023/03/04 01:13:42;;;;;;;4.18;0.52;;;16.10;1.00;;;;;;5032991;28;20038;-37
2023/03/04 01:16:10;;;;;;;1.70;0.50;;;16.10;1.00;;;;;;5034971;28;20041;-38
2023/03/04 01:18:37;;;;;;;5.60;0.82;;;16.10;1.00;;;;;;5035066;28;20038;-38
2023/03/04 01:21:04;;;;;;;2.67;0.35;;;16.10;1.00;;;;;;5035003;28;20038;-38
2023/03/04 01:23:31;;;;;;;1.67;0.38;;;16.00;1.00;;;;;;5033990;28;20045;-38
2023/03/04 01:25:58;;;;;;;3.58;0.65;;;16.00;1.00;;;;;;5034741;28;20041;-38
2023/03/04 01:28:25;;;;;;;2.63;0.38;;;16.00;1.00;;;;;;5033429;28;20107;-38
2023/03/04 01:30:52;;;;;;;2.85;0.88;;;15.90;1.00;;;;;;5033525;28;20049;-37
2023/03/04 01:33:18;;;;;;;5.60;0.60;;;15.90;1.00;;;;;;5033913;28;20071;-37
2023/03/04 01:35:45;;;;;;;1.25;0.47;;;15.90;1.00;;;;;;5033370;28;20156;-37
2023/03/04 01:38:12;;;;;;;2.65;0.82;;;15.90;1.00;;;;;;5034556;28;20049;-37
2023/03/04 01:40:39;;;;;;;3.35;0.63;;;15.80;1.00;;;;;;5033323;28;20400;-38
2023/03/04 01:43:06;;;;;;;2.72;0.40;;;15.80;1.00;;;;;;5032266;28;20060;-37
2023/03/04 01:45:34;;;;;;;1.95;0.90;;;15.80;1.00;;;;;;5034411;28;20052;-37
2023/03/04 01:48:01;;;;;;;4.22;0.80;;;15.70;1.00;;;;;;5033006;28;20050;-37
2023/03/04 01:50:32;;;;;;;1.70;0.38;;;15.70;1.00;;;;;;5034349;28;20131;-37
2023/03/04 01:52:59;;;;;;;3.55;0.45;;;15.70;1.00;;;;;;5031974;28;20464;-37
2023/03/04 01:55:28;;;;;;;3.28;0.88;;;15.70;1.00;;;;;;5034153;28;20045;-37
2023/03/04 01:57:56;;;;;;;3.05;0.57;;;15.60;1.00;;;;;;5033012;28;20041;-38
2023/03/04 02:00:31;;;;;;;1.10;0.40;;;15.60;1.00;;;;;;5032791;28;20152;-38
2023/03/04 02:03:02;;;;;;;2.55;0.30;;;15.60;1.00;;;;;;5029335;28;20045;-38
2023/03/04 02:05:30;;;;;;;2.00;0.50;;;15.60;1.00;;;;;;5022115;28;20046;-38
2023/03/04 02:07:58;;;;;;;2.45;0.40;;;15.60;1.00;;;;;;5030409;28;20045;-37
2023/03/04 02:10:25;;;;;;;2.92;0.70;;;15.60;1.00;;;;;;5033923;28;20052;-37
2023/03/04 02:12:52;;;;;;;2.67;0.50;;;15.50;1.00;;;;;;5033075;28;20452;-38
2023/03/04 02:15:20;;;;;;;2.40;0.63;;;15.50;1.00;;;;;;5032465;28;20045;-38
2023/03/04 02:17:47;;;;;;;2.38;0.70;;;15.50;1.00;;;;;;5032476;28;20054;-38
2023/03/04 02:20:34;;;;;;;1.02;0.28;;;15.50;1.00;;;;;;5033708;28;20111;-38
2023/03/04 02:23:25;;;;;;;3.17;0.38;;;15.50;1.00;;;;;;5031778;28;20057;-38
2023/03/04 02:26:10;;;;;;;1.25;0.40;;;15.40;1.00;;;;;;5032453;28;20064;-38
2023/03/04 02:28:36;;;;;;;4.80;0.40;;;15.40;1.00;;;;;;5031315;28;20077;-38
2023/03/04 02:31:03;;;;;;;3.30;0.43;;;15.40;1.00;;;;;;5029419;28;20048;-38
2023/03/04 02:33:32;;;;;;;3.22;0.38;;;15.40;1.00;;;;;;5032824;28;20108;-38
2023/03/04 02:35:58;;;;;;;2.95;0.38;;;15.40;1.00;;;;;;5032239;28;20044;-37
2023/03/04 02:38:25;;;;;;;1.05;0.40;;;15.40;1.00;;;;;;5032261;28;20479;-37
2023/03/04 02:40:54;;;;;;;2.33;0.52;;;15.50;1.00;;;;;;5032078;28;20053;-38
2023/03/04 02:43:21;;;;;;;2.40;0.40;;;15.50;1.00;;;;;;5031249;28;20060;-37
2023/03/04 02:45:49;;;;;;;1.60;0.38;;;15.60;1.00;;;;;;5032131;28;20037;-37
2023/03/04 02:48:20;;;;;;;1.65;0.47;;;15.70;1.00;;;;;;5031988;28;20068;-37
2023/03/04 02:50:51;;;;;;;2.03;0.55;;;15.80;1.00;;;;;;5031996;28;20045;-37
2023/03/04 02:53:19;;;;;;;2.20;0.38;;;15.90;1.00;;;;;;5022403;28;20053;-37
2023/03/04 02:55:47;;;;;;;1.77;0.47;;;16.00;1.00;;;;;;5015317;28;20096;-38
2023/03/04 02:58:15;;;;;;;1.77;0.25;;;16.10;1.00;;;;;;5014053;28;20141;-36
2023/03/04 03:00:42;;;;;;;3.28;0.40;;;16.20;1.00;;;;;;5015378;28;20045;-36
2023/03/04 03:03:10;;;;;;;1.98;0.47;;;16.30;1.00;;;;;;5014405;28;20045;-37
2023/03/04 03:05:37;;;;;;;2.70;0.38;;;16.30;1.00;;;;;;5014410;28;20140;-36
2023/03/04 03:08:06;;;;;;;2.47;0.30;;;16.40;1.00;;;;;;5015050;28;20045;-36
2023/03/04 03:10:32;;;;;;;4.05;0.50;;;16.40;1.00;;;;;;5032873;28;20451;-37
2023/03/04 03:13:01;;;;;;;1.83;0.40;;;16.50;1.00;;;;;;5014326;28;20064;-37
2023/03/04 03:15:28;;;;;;;3.05;0.30;;;16.50;1.00;;;;;;5015098;28;20132;-37
2023/03/04 03:17:56;;;;;;;1.77;0.40;;;16.50;1.00;;;;;;5032705;28;20167;-37
2023/03/04 03:20:23;;;;;;;2.33;0.52;;;16.60;1.00;;;;;;5032620;28;20099;-37
2023/03/04 03:22:50;;;;;;;2.00;0.50;;;16.60;1.00;;;;;;5014118;28;20569;-37
2023/03/04 03:25:18;;;;;;;1.02;0.50;;;16.60;1.00;;;;;;5014742;28;20140;-37
2023/03/04 03:27:45;;;;;;;2.63;0.47;;;16.60;1.00;;;;;;5032541;28;20045;-37
2023/03/04 03:30:14;;;;;;;1.15;0.30;;;16.60;1.00;;;;;;5014713;28;20049;-37
2023/03/04 03:32:41;;;;;;;1.60;0.50;;;16.60;1.00;;;;;;5013956;28;20057;-37
2023/03/04 03:35:08;;;;;;;1.73;0.40;;;16.60;1.00;;;;;;5014626;28;20045;-36
2023/03/04 03:37:35;;;;;;;2.03;0.47;;;16.60;1.00;;;;;;5014609;28;20048;-36
2023/03/04 03:40:02;;;;;;;1.77;0.43;;;16.60;1.00;;;;;;5032312;28;20544;-37
2023/03/04 03:42:30;;;;;;;1.92;0.35;;;16.50;1.00;;;;;;5031925;28;20136;-37
2023/03/04 03:44:57;;;;;;;2.83;0.40;;;16.50;1.00;;;;;;5031858;28;20409;-37
2023/03/04 03:47:23;;;;;;;1.40;0.60;;;16.50;1.00;;;;;;5032147;28;20576;-37
2023/03/04 03:49:50;;;;;;;3.67;1.20;;;16.50;1.00;;;;;;5032008;28;20041;-36
2023/03/04 03:52:17;;;;;;;3.45;0.95;;;16.50;1.00;;;;;;5031863;28;20030;-36
2023/03/04 03:54:44;;;;;;;1.98;0.25;;;16.50;1.00;;;;;;5031671;28;20125;-37
2023/03/04 03:57:11;;;;;;;2.28;0.77;;;16.40;1.00;;;;;;5032071;28;20045;-37
2023/03/04 03:59:37;;;;;;;2.03;0.68;;;16.40;1.00;;;;;;5032029;28;20046;-37
2023/03/04 04:02:04;;;;;;;1.88;0.30;;;16.40;1.00;;;;;;5014248;28;20479;-37
2023/03/04 04:04:31;;;;;;;1.13;0.52;;;16.40;1.00;;;;;;5031272;28;20144;-37
2023/03/04 04:06:58;;;;;;;2.60;0.40;;;16.30;1.00;;;;;;5031958;28;20608;-36
2023/03/04 04:09:25;;;;;;;1.98;0.35;;;16.30;1.00;;;;;;5031865;28;20394;-36
2023/03/04 04:11:51;;;;;;;1.55;0.20;;;16.30;1.00;;;;;;5031933;28;20048;-37
2023/03/04 04:14:18;;;;;;;4.35;0.43;;;16.30;1.00;;;;;;5031009;28;20124;-37
2023/03/04 04:16:46;;;;;;;0.70;0.28;;;16.30;1.00;;;;;;5031672;28;20041;-36
2023/03/04 04:19:22;;;;;;;2.55;0.65;;;16.20;1.00;;;;;;5014055;28;20056;-37
2023/03/04 04:21:49;;;;;;;1.42;0.45;;;16.20;1.00;;;;;;5031810;28;20095;-37
2023/03/04 04:24:16;;;;;;;3.85;0.65;;;16.20;1.00;;;;;;5030910;28;20098;-37
2023/03/04 04:26:42;;;;;;;1.92;0.73;;;16.20;1.00;;;;;;5031723;28;20104;-38
2023/03/04 04:29:12;;;;;;;1.95;0.43;;;16.10;1.00;;;;;;5031679;28;20033;-37
2023/03/04 04:31:39;;;;;;;2.25;0.70;;;16.10;1.00;;;;;;5031690;28;20041;-38
2023/03/04 04:34:06;;;;;;;2.78;0.55;;;16.10;1.00;;;;;;5030972;28;20045;-38
2023/03/04 04:36:33;;;;;;;2.60;0.85;;;16.00;1.00;;;;;;5031726;28;20099;-38
2023/03/04 04:38:59;;;;;;;3.55;0.52;;;16.00;1.00;;;;;;5031586;28;20076;-38
2023/03/04 04:41:30;;;;;;;1.95;0.22;;;16.00;1.00;;;;;;5031539;28;20049;-38
2023/03/04 04:43:57;;;;;;;4.47;0.50;;;15.90;1.00;;;;;;5030803;28;20116;-38
2023/03/04 04:46:24;;;;;;;2.25;0.73;;;15.90;1.00;;;;;;5031575;28;20523;-38
2023/03/04 04:48:51;;;;;;;2.03;0.40;;;15.90;1.00;;;;;;5031566;28;20060;-38
2023/03/04 04:51:18;;;;;;;1.60;0.50;;;15.90;1.00;;;;;;5031552;28;20548;-38
2023/03/04 04:53:45;;;;;;;1.90;0.43;;;15.80;1.00;;;;;;5030613;28;20050;-38
2023/03/04 04:56:18;;;;;;;0.47;0.20;;;15.80;1.00;;;;;;5031309;28;20048;-38
2023/03/04 04:58:45;;;;;;;2.42;0.50;;;15.80;1.00;;;;;;5031200;28;20041;-37
2023/03/04 05:01:13;;;;;;;1.77;0.20;;;15.70;1.00;;;;;;5031488;28;20049;-37
2023/03/04 05:03:40;;;;;;;1.45;0.30;;;15.70;1.00;;;;;;5030665;28;20049;-37
2023/03/04 05:06:09;;;;;;;3.45;0.60;;;15.70;1.00;;;;;;5031369;28;20045;-37
2023/03/04 05:08:36;;;;;;;1.55;0.63;;;15.70;1.00;;;;;;5031249;28;20091;-36
2023/03/04 05:11:05;;;;;;;0.52;0.32;;;15.70;1.00;;;;;;5031329;28;20045;-37
2023/03/04 05:13:32;;;;;;;0.75;0.20;;;15.60;1.00;;;;;;5030513;28;20405;-37
2023/03/04 05:15:58;;;;;;;0.93;0.20;;;15.60;1.00;;;;;;5013840;28;20041;-38
2023/03/04 05:18:26;;;;;;;2.55;0.35;;;15.60;1.00;;;;;;5031358;28;20052;-37
2023/03/04 05:20:59;;;;;;;3.47;0.57;;;15.60;1.00;;;;;;5031247;28;20111;-37
2023/03/04 05:23:27;;;;;;;1.73;0.20;;;15.50;1.00;;;;;;5030244;28;20563;-37
2023/03/04 05:25:54;;;;;;;1.83;0.30;;;15.60;1.00;;;;;;5031355;28;20444;-37
2023/03/04 05:28:21;;;;;;;3.45;0.60;;;15.50;1.00;;;;;;5031632;28;20052;-37
2023/03/04 05:30:48;;;;;;;1.40;0.55;;;15.50;1.00;;;;;;5034668;28;20041;-38
2023/03/04 05:33:16;;;;;;;0.63;0.13;;;15.50;1.00;;;;;;5033898;28;20120;-38
2023/03/04 05:35:45;;;;;;;0.77;0.22;;;15.40;1.00;;;;;;5034569;28;20057;-38
2023/03/04 05:38:14;;;;;;;2.22;0.35;;;15.50;1.00;;;;;;5016861;28;20049;-38
2023/03/04 05:40:41;;;;;;;1.23;0.32;;;15.40;1.00;;;;;;5034607;28;20147;-38
2023/03/04 05:43:09;;;;;;;1.50;0.30;;;15.50;1.00;;;;;;5033754;28;20079;-38
2023/03/04 05:45:36;;;;;;;3.33;0.68;;;15.50;1.00;;;;;;5034407;28;20144;-38
2023/03/04 05:48:04;;;;;;;2.25;0.20;;;15.60;1.00;;;;;;5034459;28;20529;-36
2023/03/04 05:50:31;;;;;;;3.28;0.25;;;15.60;1.00;;;;;;5034307;28;20108;-36
2023/03/04 05:52:58;;;;;;;2.17;0.20;;;15.70;1.00;;;;;;5033604;28;20041;-36
2023/03/04 05:55:27;;;;;;;3.33;1.15;;;15.80;1.00;;;;;;5034153;28;20041;-36
2023/03/04 05:57:54;;;;;;;1.83;0.25;;;15.80;1.00;;;;;;5034350;28;20038;-36
2023/03/04 06:00:21;;;;;;;3.50;0.40;;;15.90;1.00;;;;;;5034239;28;20033;-36
2023/03/04 06:02:48;;;;;;;3.13;0.60;;;16.00;1.00;;;;;;5033317;28;20041;-37
2023/03/04 06:05:16;;;;;;;1.45;0.30;;;16.10;1.00;;;;;;5034102;28;20049;-37
2023/03/04 06:07:43;;;;;;;1.30;0.40;;;16.20;1.00;;;;;;5034073;28;20049;-37
2023/03/04 06:10:15;;;;;;;1.38;0.40;;;16.20;1.00;;;;;;5016472;28;20042;-38
2023/03/04 06:12:42;;;;;;;0.90;0.20;;;16.30;1.00;;;;;;5033382;28;20049;-37
2023/03/04 06:15:09;;;;;;;2.40;0.17;;;16.30;1.00;;;;;;5033821;28;20056;-37
2023/03/04 06:17:38;;;;;;;1.23;0.10;;;16.30;1.00;;;;;;5032909;28;20034;-37
2023/03/04 06:20:09;;;;;;;1.42;0.30;;;16.40;1.00;;;;;;5017339;28;20052;-37
2023/03/04 06:22:36;;;;;;;0.63;0.25;;;16.40;1.00;;;;;;5017823;28;20103;-37
2023/03/04 06:25:04;;;;;;;1.25;0.30;;;16.40;1.00;;;;;;5070186;22;20113;-39
2023/03/04 06:27:31;;;;;;;1.35;0.30;;;16.40;1.00;;;;;;5074176;28;20040;-39
2023/03/04 06:29:58;;;;;;;1.00;0.40;;;16.40;1.00;;;;;;5083032;28;20139;-38
2023/03/04 06:32:24;;;;;;;0.98;0.17;;;16.40;1.00;;;;;;5080026;28;20048;-38
2023/03/04 06:34:51;;;;;;;0.90;0.20;;;16.40;1.00;;;;;;5080195;28;20514;-39
2023/03/04 06:37:18;;;;;;;0.70;0.20;;;16.40;1.00;;;;;;5093396;28;20051;-39
2023/03/04 06:39:45;;;;;;;2.53;0.38;;;16.40;1.00;;;;;;5093570;28;20067;-39
2023/03/04 06:42:12;;;;;;;1.30;0.20;;;16.40;1.00;;;;;;5093159;28;20101;-39
2023/03/04 06:44:39;;;;;;;2.47;0.45;;;16.40;1.00;;;;;;5093003;28;20052;-39
2023/03/04 06:47:06;;;;;;;1.02;0.40;;;16.40;1.00;;;;;;5093524;28;20057;-38
2023/03/04 06:49:33;;;;;;;0.57;0.13;;;16.30;1.00;;;;;;5093527;28;20076;-39
2023/03/04 06:51:59;;;;;;;2.25;0.77;;;16.30;1.00;;;;;;5093086;28;20086;-39
2023/03/04 06:54:26;;;;;;;1.27;0.20;;;16.30;1.00;;;;;;5091221;28;20397;-39
2023/03/04 06:56:53;;;;;;;2.05;0.20;;;16.30;1.00;;;;;;5093049;28;20048;-39
2023/03/04 06:59:19;;;;;;;1.08;0.40;;;16.30;1.00;;;;;;5093231;28;20119;-39
2023/03/04 07:01:46;;;;;;;1.13;0.30;;;16.30;1.00;;;;;;5093078;28;20047;-39
2023/03/04 07:04:13;;;;;;;2.25;0.20;;;16.20;1.00;;;;;;5092411;28;20071;-39
2023/03/04 07:06:40;;;;;;;1.00;0.20;;;16.20;1.00;;;;;;5093013;28;20123;-39
2023/03/04 07:09:07;;;;;;;1.33;0.15;;;16.20;1.00;;;;;;5093011;28;20122;-39
2023/03/04 07:11:34;;;;;;;0.88;0.15;;;16.10;1.00;;;;;;5092676;28;20500;-39
2023/03/04 07:14:01;;;;;;;0.57;0.10;;;16.20;1.00;;;;;;5092084;28;20051;-39
2023/03/04 07:16:27;;;;;;;1.80;0.20;;;16.10;1.00;;;;;;5092901;28;20055;-39
2023/03/04 07:18:54;;;;;;;1.77;0.20;;;16.10;1.00;;;;;;5092989;28;20050;-39
2023/03/04 07:21:21;;;;;;;1.25;0.30;;;16.10;1.00;;;;;;5092712;28;20449;-39
2023/03/04 07:23:48;;;;;;;1.10;0.38;;;16.10;1.00;;;;;;5091895;28;20062;-39
2023/03/04 07:26:15;;;;;;;1.40;0.60;;;16.00;1.00;;;;;;5092683;28;20054;-39
2023/03/04 07:28:42;;;;;;;1.42;0.47;;;16.00;1.00;;;;;;5092800;28;20039;-38
2023/03/04 07:31:19;;;;;;;1.02;0.47;;;16.00;1.00;;;;;;5083954;28;20044;-39
2023/03/04 07:33:46;;;;;;;2.30;0.57;;;15.90;1.00;;;;;;5091729;28;20047;-38
2023/03/04 07:36:13;;;;;;;4.47;0.80;;;16.00;1.00;;;;;;5092382;28;20044;-39
2023/03/04 07:38:44;;;;;;;2.38;0.60;;;16.20;1.00;;;;;;5092467;28;20050;-39
2023/03/04 07:41:12;;;;;;;10.13;1.00;;;16.30;1.00;;;;;;5092416;28;20079;-39
2023/03/04 07:43:38;;;;;;;2.83;0.50;;;16.50;1.00;;;;;;5089092;28;20177;-39
2023/03/04 07:46:05;;;;;;;1.65;0.30;;;16.60;1.00;;;;;;5085911;28;20064;-39
2023/03/04 07:48:32;;;;;;;1.58;0.60;;;16.70;1.00;;;;;;5085026;28;20042;-37
2023/03/04 07:51:15;;;;;;;3.17;1.13;;;16.80;1.00;;;;;;5083416;28;20036;-39
2023/03/04 07:53:58;;;;;;;2.60;0.47;;;17.00;1.00;;;;;;5082175;28;20072;-39
2023/03/04 07:56:42;;;;;;;3.35;0.70;;;17.10;1.00;;;;;;5067260;28;20391;-38
2023/03/04 07:59:14;;;;;;;2.65;0.50;;;17.10;1.00;;;;;;5089190;28;20050;-39
2023/03/04 08:01:55;;;;;;;2.72;0.63;;;17.10;1.00;;;;;;5091972;28;20047;-39
2023/03/04 08:04:28;;;;;;;7.32;0.77;;;17.10;1.00;;;;;;5091267;28;20070;-38
2023/03/04 08:07:03;;;;;;;5.07;1.27;;;17.10;1.00;;;;;;5084830;28;20032;-38
2023/03/04 08:09:30;;;;;;;7.00;1.05;;;17.00;1.00;;;;;;5091062;28;20071;-38
2023/03/04 08:11:57;;;;;;;7.25;1.02;;;16.90;1.00;;;;;;5090653;28;20047;-39
2023/03/04 08:14:24;;;;;;;6.25;1.15;;;16.90;1.00;;;;;;5091106;28;20045;-38
2023/03/04 08:16:51;;;;;;;2.63;0.75;;;16.80;1.00;;;;;;5092009;28;20549;-39
2023/03/04 08:19:17;;;;;;;4.80;0.68;;;16.80;1.00;;;;;;5091957;28;20044;-39
2023/03/04 08:21:44;;;;;;;5.97;1.42;;;16.70;1.00;;;;;;5091859;28;20048;-38
2023/03/04 08:24:12;;;;;;;4.88;0.57;;;16.70;1.00;;;;;;5090818;28;20456;-38
2023/03/04 08:26:48;;;;;;;5.13;0.85;;;16.70;1.00;;;;;;5091823;28;20052;-39
2023/03/04 08:29:20;;;;;;;8.23;1.05;;;16.60;1.00;;;;;;5091877;28;20097;-39
2023/03/04 08:31:48;;;;;;;3.90;0.53;;;16.60;1.00;;;;;;5091818;28;20418;-39
2023/03/04 08:34:17;;;;;;;5.88;0.70;;;16.50;1.00;;;;;;5086169;28;20045;-38
2023/03/04 08:36:44;;;;;;;6.00;1.10;;;16.50;1.00;;;;;;5086045;28;20081;-38
2023/03/04 08:39:15;;;;;;;4.03;0.52;;;16.50;1.00;;;;;;5089141;28;20097;-38
2023/03/04 08:41:43;;;;;;;6.97;0.80;;;16.40;1.00;;;;;;5072846;28;20445;-38
2023/03/04 08:44:10;;;;;;;7.13;1.00;;;16.40;1.00;;;;;;5087177;28;20068;-38
2023/03/04 08:46:38;;;;;;;5.90;0.82;;;16.40;1.00;;;;;;5090992;28;20121;-38
2023/03/04 08:49:06;;;;;;;5.97;0.63;;;16.40;1.00;;;;;;5083000;28;20480;-38
2023/03/04 08:51:34;;;;;;;4.95;1.33;;;16.30;1.00;;;;;;5072649;28;20076;-38
2023/03/04 08:54:02;;;;;;;2.72;0.90;;;16.30;1.00;;;;;;5087510;28;20093;-38
2023/03/04 08:56:29;;;;;;;2.88;0.38;;;16.30;1.00;;;;;;5091544;28;20097;-38
2023/03/04 08:58:57;;;;;;;5.95;0.88;;;16.20;1.00;;;;;;5090803;28;20522;-39
2023/03/04 09:01:23;;;;;;;3.22;0.47;;;16.20;1.00;;;;;;5089373;28;20067;-39
2023/03/04 09:03:50;;;;;;;3.78;1.08;;;16.20;1.00;;;;;;5091642;28;20048;-39
2023/03/04 09:06:18;;;;;;;2.03;0.55;;;16.20;1.00;;;;;;5094779;28;20043;-39
2023/03/04 09:08:45;;;;;;;8.07;0.93;;;16.20;1.00;;;;;;5095400;28;20441;-38
2023/03/04 09:11:12;;;;;;;3.83;0.45;;;16.10;1.00;;;;;;5095220;28;20036;-39
2023/03/04 09:13:39;;;;;;;3.70;1.77;;;16.10;1.00;;;;;;5094457;28;20077;-39
2023/03/04 09:16:11;;;;;;;5.47;1.05;;;16.10;1.00;;;;;;5095125;28;20491;-38
2023/03/04 09:18:39;;;;;;;2.42;0.70;;;16.00;1.00;;;;;;5095023;28;20111;-38
2023/03/04 09:21:07;;;;;;;3.92;0.68;;;16.00;1.00;;;;;;5095117;28;20051;-38
2023/03/04 09:23:35;;;;;;;2.88;0.50;;;16.00;1.00;;;;;;5094215;28;20048;-39
2023/03/04 09:26:18;;;;;;;3.05;0.50;;;16.00;1.00;;;;;;5095056;28;20044;-39
2023/03/04 09:28:45;;;;;;;2.55;0.95;;;16.00;1.00;;;;;;5094972;28;20043;-38
2023/03/04 09:31:13;;;;;;;6.57;0.55;;;15.90;1.00;;;;;;5094698;28;20122;-38
2023/03/04 09:33:41;;;;;;;3.83;0.85;;;15.90;1.00;;;;;;5094157;28;20050;-38
2023/03/04 09:36:10;;;;;;;2.05;0.45;;;15.90;1.00;;;;;;5094739;28;20047;-38
2023/03/04 09:38:38;;;;;;;4.55;0.50;;;15.90;1.00;;;;;;5094965;28;20123;-38
2023/03/04 09:41:08;;;;;;;3.20;0.85;;;15.90;1.00;;;;;;5094745;28;20118;-38
2023/03/04 09:43:38;;;;;;;1.40;0.40;;;15.90;1.00;;;;;;5093867;28;20115;-38
2023/03/04 09:46:13;;;;;;;4.85;0.60;;;15.90;1.00;;;;;;5094458;28;20044;-38
2023/03/04 09:48:47;;;;;;;1.27;0.40;;;15.80;1.00;;;;;;5094560;28;20043;-38
2023/03/04 09:51:37;;;;;;;3.08;1.20;;;15.80;1.00;;;;;;5094417;28;20479;-38
2023/03/04 09:54:07;;;;;;;1.65;0.20;;;15.80;1.00;;;;;;5082977;28;20060;-39
2023/03/04 09:56:37;;;;;;;2.53;0.30;;;15.80;1.00;;;;;;5093116;28;20440;-38
2023/03/04 09:59:09;;;;;;;4.72;0.60;;;15.80;1.00;;;;;;5094023;28;20043;-38
2023/03/04 10:01:47;;;;;;;2.10;0.35;;;15.80;1.00;;;;;;5094787;28;20044;-38
2023/03/04 10:04:39;;;;;;;2.60;0.28;;;15.80;1.00;;;;;;5093384;28;20044;-38
2023/03/04 10:07:23;;;;;;;2.28;0.45;;;15.70;1.00;;;;;;5094268;28;20040;-38
2023/03/04 10:10:04;;;;;;;2.22;0.47;;;15.70;1.00;;;;;;5094247;28;20055;-38
2023/03/04 10:12:48;;;;;;;2.97;0.85;;;15.70;1.00;;;;;;5093669;28;20054;-39
2023/03/04 10:15:41;;;;;;;2.83;0.63;;;15.70;1.00;;;;;;5093448;28;20040;-38
2023/03/04 10:21:38;;;;;;;4.15;0.52;;;15.70;1.00;;;;;;5089468;28;20511;-38
2023/03/04 10:24:16;;;;;;;3.55;0.43;;;15.70;1.00;;;;;;5092938;28;20044;-38
2023/03/04 10:26:46;;;;;;;5.13;0.50;;;15.70;1.00;;;;;;5093896;28;20044;-38
2023/03/04 10:29:15;;;;;;;3.92;0.63;;;15.60;1.00;;;;;;5093766;28;20080;-38
2023/03/04 10:31:44;;;;;;;2.28;0.45;;;15.60;1.00;;;;;;5093507;28;20040;-38
2023/03/04 10:34:13;;;;;;;4.63;1.33;;;15.60;1.00;;;;;;5092889;28;20036;-38
2023/03/04 10:36:49;;;;;;;3.22;0.88;;;15.60;1.00;;;;;;5093691;28;20560;-39
2023/03/04 10:39:25;;;;;;;3.67;0.98;;;15.60;1.00;;;;;;5094019;28;20119;-39
2023/03/04 10:42:05;;;;;;;1.90;0.50;;;15.60;1.00;;;;;;5092250;28;20059;-39
2023/03/04 10:44:33;;;;;;;3.35;0.50;;;15.60;1.00;;;;;;5091423;28;20044;-38
2023/03/04 10:47:00;;;;;;;3.28;0.43;;;15.50;1.00;;;;;;5093419;28;20048;-39
2023/03/04 10:49:29;;;;;;;4.85;0.82;;;15.50;1.00;;;;;;5093457;28;20052;-39
2023/03/04 10:52:24;;;;;;;7.45;0.60;;;15.50;1.00;;;;;;5093313;28;20040;-39
2023/03/04 10:55:01;;;;;;;4.35;0.82;;;15.50;1.00;;;;;;5092875;28;20040;-38
2023/03/04 10:57:38;;;;;;;2.15;0.75;;;15.50;1.00;;;;;;5093228;28;20032;-38
2023/03/04 11:00:28;;;;;;;3.85;0.68;;;15.50;1.00;;;;;;5092056;28;20040;-39
2023/03/04 11:03:21;;;;;;;2.28;0.47;;;15.50;1.00;;;;;;5092577;28;20054;-38
2023/03/04 11:05:47;;;;;;;1.20;0.60;;;15.50;1.00;;;;;;5093168;28;20048;-38
2023/03/04 11:08:19;;;;;;;6.90;1.40;;;15.50;1.00;;;;;;5093093;28;20044;-39
2023/03/04 11:10:48;;;;;;;3.17;0.90;;;15.50;1.00;;;;;;5093082;28;20478;-39
2023/03/04 11:13:23;;;;;;;2.53;0.50;;;15.50;1.00;;;;;;5092134;28;20040;-39
2023/03/04 11:16:29;;;;;;;2.72;0.50;;;15.50;1.00;;;;;;5092968;28;20039;-39
2023/03/04 11:19:14;;;;;;;4.25;1.13;;;15.40;1.00;;;;;;5092820;28;20044;-39
2023/03/04 11:21:41;;;;;;;4.03;1.13;;;15.40;1.00;;;;;;5092871;28;20123;-39
2023/03/04 11:24:26;;;;;;;5.97;0.75;;;15.40;1.00;;;;;;5091805;28;20101;-39
2023/03/04 11:27:01;;;;;;;2.45;0.52;;;15.50;1.00;;;;;;5090930;28;20044;-39
2023/03/04 11:29:59;;;;;;;5.88;0.98;;;15.40;1.00;;;;;;5091428;28;20051;-39
2023/03/04 11:32:38;;;;;;;2.10;0.68;;;15.40;1.00;;;;;;5092103;28;20047;-39
2023/03/04 11:35:22;;;;;;;2.03;0.45;;;15.40;1.00;;;;;;5092449;28;20097;-39
2023/03/04 11:38:11;;;;;;;4.43;1.10;;;15.40;1.00;;;;;;5092586;28;20491;-39
2023/03/04 11:40:44;;;;;;;3.08;1.40;;;15.40;1.00;;;;;;5091233;28;20051;-38
2023/03/04 11:43:18;;;;;;;1.83;0.57;;;15.40;1.00;;;;;;5091831;28;20048;-39
2023/03/04 11:45:48;;;;;;;4.75;0.95;;;15.40;1.00;;;;;;5092352;28;20115;-38
2023/03/04 11:48:51;;;;;;;2.70;0.80;;;15.40;1.00;;;;;;5092488;28;20449;-38
2023/03/04 11:51:35;;;;;;;2.70;0.60;;;15.40;1.00;;;;;;5092259;28;20043;-38
2023/03/04 11:54:25;;;;;;;2.22;0.70;;;15.40;1.00;;;;;;5091556;28;20135;-38
2023/03/04 11:57:04;;;;;;;3.95;0.50;;;15.40;1.00;;;;;;5080818;28;20056;-38
2023/03/04 11:59:45;;;;;;;3.65;0.82;;;15.40;1.00;;;;;;5092297;28;20040;-38
2023/03/04 12:02:48;;;;;;;3.38;0.80;;;15.40;1.00;;;;;;5091909;28;20078;-38
2023/03/04 12:05:50;;;;;;;3.70;0.98;;;15.40;1.00;;;;;;5081553;28;20392;-38
2023/03/04 12:08:47;;;;;;;6.40;0.75;;;15.30;1.00;;;;;;5092182;28;20048;-39
2023/03/04 12:11:56;;;;;;;1.98;0.60;;;15.40;1.00;;;;;;5092332;28;20093;-39
2023/03/04 12:14:54;;;;;;;3.42;1.05;;;15.40;1.00;;;;;;5068570;28;20496;-39
2023/03/04 12:17:42;;;;;;;5.97;1.27;;;15.30;1.00;;;;;;5071022;28;20079;-39
2023/03/04 12:20:09;;;;;;;4.60;1.33;;;15.40;1.00;;;;;;5091928;28;20372;-39
2023/03/04 12:22:46;;;;;;;2.35;0.40;;;15.30;1.00;;;;;;5091678;28;20172;-39
2023/03/04 12:25:31;;;;;;;2.50;0.90;;;15.30;1.00;;;;;;5091698;22;20044;-36
2023/03/04 12:28:21;;;;;;;2.88;0.70;;;15.30;1.00;;;;;;5071471;28;20480;-36
2023/03/04 12:31:12;;;;;;;5.32;0.73;;;15.30;1.00;;;;;;5071661;28;20047;-36
2023/03/04 12:34:22;;;;;;;8.00;0.82;;;15.30;1.00;;;;;;5071290;28;20041;-37
2023/03/04 12:37:10;;;;;;;4.45;1.45;;;15.30;1.00;;;;;;5051585;28;20503;-37
2023/03/04 12:39:51;;;;;;;8.00;0.63;;;15.30;1.00;;;;;;5055733;28;20033;-37
2023/03/04 12:42:31;;;;;;;1.48;0.80;;;15.30;1.00;;;;;;5055169;28;20064;-37
2023/03/04 12:45:26;;;;;;;4.00;0.30;;;15.30;1.00;;;;;;5054910;28;20049;-38
2023/03/04 12:48:20;;;;;;;1.48;0.47;;;15.30;1.00;;;;;;5055397;28;20059;-37
2023/03/04 12:51:40;;;;;;;1.48;0.32;;;15.30;1.00;;;;;;5055388;28;20075;-37
2023/03/04 12:55:07;;;;;;;4.65;0.50;;;15.30;1.00;;;;;;5048912;28;20489;-38
2023/03/04 12:58:13;;;;;;;6.18;0.57;;;15.30;1.00;;;;;;5053498;28;20052;-39
2023/03/04 13:01:14;;;;;;;3.28;0.38;;;15.20;1.00;;;;;;5055224;28;20036;-38
2023/03/04 13:04:39;;;;;;;2.90;0.60;;;15.20;1.00;;;;;;5052618;28;20099;-37
2023/03/04 13:07:40;;;;;;;7.63;0.75;;;15.20;1.00;;;;;;5055132;28;20049;-36
2023/03/04 13:10:37;;;;;;;4.13;0.70;;;15.20;1.00;;;;;;5055015;28;20051;-37
2023/03/04 13:13:31;;;;;;;4.20;1.13;;;15.20;1.00;;;;;;5054145;28;20045;-37
2023/03/04 13:16:54;;;;;;;3.83;0.85;;;15.20;1.00;;;;;;5055227;28;20049;-37
2023/03/04 13:20:09;;;;;;;2.38;1.02;;;15.20;1.00;;;;;;5028818;28;20053;-37
2023/03/04 13:23:15;;;;;;;1.02;0.35;;;15.20;1.00;;;;;;4953688;29;20507;-37
2023/03/04 13:26:37;;;;;;;3.38;0.70;;;15.20;1.00;;;;;;4954301;29;20062;-37
2023/03/04 13:29:26;;;;;;;2.28;0.75;;;15.20;1.00;;;;;;4954127;28;20051;-38